Bartow, West Virginia
Current Conditions -  °F | °C
As of 3:51 PM on Thursday 27 Nov 2014 (Local Time) from KEKN Reporting Station
Light Snow Light Snow  
Wind Chill: 21°   Ceiling: 1900
Heat Index: 30°   Visibility: 1.2mi
Dew Point: 26°   Wind: 12mph
Humidity: 85%   Direction: 260°W
Pressure: 30.11"   Gusts: NA
Location:  38.54°N, 79.78°W
Report Text: KEKN 272051Z AUTO 26010KT 1 1/4SM -SN BR BKN019 OVC025 M01/M03 A3011 RMK AO2 SLP220 P0000 60001 T10111033 53019 TSNO
Loading
Personal Weather Stations






























Interactive Weather Map New forecast layout! Learn more

10-Day Weather Forecast

Advertisements
Track Severe Weather on mobile